Time;durP1;ratioP1;P1;durP2;ratioP2;P2;SDS_P1;SDS_P2;PMS_P1;PMS_P2;Temp;Humidity;BMP_temperature;BMP_pressure;BME280_temperature;BME280_humidity;BME280_pressure;Samples;Min_cycle;Max_cycle;Signal;HPM_P1;HPM_P2
2022/11/24 00:02:00;;;;;;;23.07;4.50;;;8.40;99.90;;;;;;5037705;28;20053;-77
2022/11/24 00:04:25;;;;;;;20.80;4.37;;;8.40;99.90;;;;;;5054206;28;20471;-78
2022/11/24 00:06:52;;;;;;;23.20;4.33;;;8.40;99.90;;;;;;5054123;28;20031;-78
2022/11/24 00:09:18;;;;;;;19.93;3.77;;;8.40;99.90;;;;;;5037635;28;20408;-78
2022/11/24 00:11:44;;;;;;;18.00;2.97;;;8.40;99.90;;;;;;5037501;28;20044;-77
2022/11/24 00:14:10;;;;;;;23.70;3.43;;;8.50;99.90;;;;;;5054057;28;20488;-77
2022/11/24 00:16:37;;;;;;;20.37;3.57;;;8.50;99.90;;;;;;5054047;28;20025;-77
2022/11/24 00:19:08;;;;;;;19.53;3.83;;;8.50;99.90;;;;;;5053960;28;20029;-81
2022/11/24 00:21:34;;;;;;;22.60;3.73;;;8.50;99.90;;;;;;5055534;28;20420;-81
2022/11/24 00:24:00;;;;;;;19.77;3.90;;;8.50;99.90;;;;;;5053851;28;20035;-80
2022/11/24 00:26:28;;;;;;;15.57;2.77;;;8.50;99.90;;;;;;5053707;28;20045;-81
2022/11/24 00:28:56;;;;;;;21.33;4.63;;;8.50;99.90;;;;;;5054152;28;20528;-81
2022/11/24 00:31:26;;;;;;;17.97;3.33;;;8.50;99.90;;;;;;5037533;28;20115;-81
2022/11/24 00:33:54;;;;;;;24.07;4.07;;;8.50;99.90;;;;;;5053821;28;20048;-81
2022/11/24 00:36:21;;;;;;;25.10;3.40;;;8.50;99.90;;;;;;5053864;28;20029;-81
2022/11/24 00:38:51;;;;;;;14.57;2.83;;;8.50;99.90;;;;;;5053806;28;20460;-80
2022/11/24 00:41:17;;;;;;;21.57;3.17;;;8.50;99.90;;;;;;5055175;28;20021;-81
2022/11/24 00:43:42;;;;;;;20.00;3.47;;;8.50;99.90;;;;;;5053747;28;20029;-81
2022/11/24 00:46:08;;;;;;;17.00;3.83;;;8.60;99.90;;;;;;5053617;28;20033;-81
2022/11/24 00:48:33;;;;;;;19.23;3.07;;;8.60;99.90;;;;;;5036839;28;20077;-81
2022/11/24 00:51:05;;;;;;;18.43;2.37;;;8.60;99.90;;;;;;5036879;28;20438;-81
2022/11/24 00:53:31;;;;;;;15.60;3.37;;;8.60;99.90;;;;;;5054478;28;20100;-81
2022/11/24 00:55:57;;;;;;;18.60;3.23;;;8.60;99.90;;;;;;5053238;28;20025;-81
2022/11/24 00:58:24;;;;;;;18.63;3.23;;;8.70;99.90;;;;;;5053346;28;20028;-81
2022/11/24 01:00:50;;;;;;;22.00;3.77;;;8.70;99.90;;;;;;5053250;28;20516;-81
2022/11/24 01:03:17;;;;;;;13.90;2.60;;;8.70;99.90;;;;;;5052982;28;20410;-81
2022/11/24 01:05:43;;;;;;;15.57;2.97;;;8.70;99.90;;;;;;5036408;28;20079;-81
2022/11/24 01:08:09;;;;;;;19.73;3.13;;;8.60;99.90;;;;;;5036531;28;20032;-81
2022/11/24 01:10:34;;;;;;;19.80;2.97;;;8.60;99.90;;;;;;5036384;28;20519;-81
2022/11/24 01:13:00;;;;;;;18.80;2.67;;;8.60;99.90;;;;;;5053309;28;20025;-81
2022/11/24 01:15:26;;;;;;;21.47;3.93;;;8.60;99.90;;;;;;5052812;28;20411;-81
2022/11/24 01:17:52;;;;;;;14.40;2.57;;;8.70;99.90;;;;;;5052796;28;20057;-81
2022/11/24 01:20:18;;;;;;;20.17;3.10;;;8.60;99.90;;;;;;5054273;28;20055;-81
2022/11/24 01:22:46;;;;;;;11.83;2.40;;;8.70;99.90;;;;;;5036205;28;20461;-81
2022/11/24 01:25:12;;;;;;;12.93;2.60;;;8.60;99.90;;;;;;5036467;28;20036;-81
2022/11/24 01:27:37;;;;;;;17.40;3.20;;;8.60;99.90;;;;;;5052425;28;20044;-82
2022/11/24 01:30:05;;;;;;;17.17;2.77;;;8.60;99.90;;;;;;5053035;28;20373;-81
2022/11/24 01:32:35;;;;;;;14.37;2.10;;;8.60;99.90;;;;;;5052611;28;20086;-81
2022/11/24 01:35:04;;;;;;;16.10;2.00;;;8.70;99.90;;;;;;5052519;28;20472;-81
2022/11/24 01:37:30;;;;;;;18.23;2.60;;;8.60;99.90;;;;;;5036271;28;20116;-82
2022/11/24 01:39:55;;;;;;;19.03;3.33;;;8.60;99.90;;;;;;5052496;28;20036;-81
2022/11/24 01:42:21;;;;;;;25.03;2.60;;;8.70;99.90;;;;;;5036201;28;20025;-82
2022/11/24 01:44:50;;;;;;;14.07;2.17;;;8.70;99.90;;;;;;5035865;28;20507;-81
2022/11/24 01:47:22;;;;;;;15.33;2.30;;;8.70;99.90;;;;;;5052325;28;20021;-81
2022/11/24 01:49:53;;;;;;;13.07;2.93;;;8.70;99.90;;;;;;5052295;28;20029;-82
2022/11/24 01:52:31;;;;;;;15.10;2.03;;;8.70;99.90;;;;;;5052605;28;20060;-82
2022/11/24 01:55:02;;;;;;;16.30;2.80;;;8.70;99.90;;;;;;5052577;28;20461;-81
2022/11/24 01:57:35;;;;;;;15.67;3.33;;;8.70;99.90;;;;;;5052203;28;20032;-81
2022/11/24 02:00:05;;;;;;;15.50;2.70;;;8.70;99.90;;;;;;5053447;28;20025;-81
2022/11/24 02:02:30;;;;;;;22.20;2.80;;;8.70;99.90;;;;;;5053418;28;20028;-81
2022/11/24 02:05:01;;;;;;;17.90;2.93;;;8.70;99.90;;;;;;5053398;28;20388;-81
2022/11/24 02:07:27;;;;;;;14.93;2.17;;;8.60;99.90;;;;;;5051956;28;20473;-81
2022/11/24 02:10:07;;;;;;;11.53;2.53;;;8.60;99.90;;;;;;5035480;28;20488;-82
2022/11/24 02:12:35;;;;;;;19.83;2.80;;;8.60;99.90;;;;;;5051984;28;20464;-81
2022/11/24 02:15:01;;;;;;;14.93;2.80;;;8.60;99.90;;;;;;5035472;28;20574;-82
2022/11/24 02:17:27;;;;;;;13.07;1.90;;;8.60;99.90;;;;;;5035282;28;20122;-81
2022/11/24 02:19:55;;;;;;;16.30;2.20;;;8.60;99.90;;;;;;5035393;28;20478;-82
2022/11/24 02:22:45;;;;;;;22.37;2.40;;;8.60;99.90;;;;;;5051818;28;20033;-81
2022/11/24 02:25:32;;;;;;;26.30;4.00;;;8.60;99.90;;;;;;5051820;28;20041;-81
2022/11/24 02:28:01;;;;;;;16.50;1.93;;;8.60;99.90;;;;;;5051548;28;20036;-81
2022/11/24 02:30:27;;;;;;;16.10;2.40;;;8.70;99.90;;;;;;5051868;28;20029;-82
2022/11/24 02:32:53;;;;;;;13.53;2.43;;;8.70;99.90;;;;;;5051880;28;20029;-82
2022/11/24 02:35:19;;;;;;;15.93;2.93;;;8.70;99.90;;;;;;5051884;28;20396;-81
2022/11/24 02:37:44;;;;;;;17.90;3.00;;;8.70;99.90;;;;;;5051874;28;20036;-81
2022/11/24 02:40:15;;;;;;;22.37;3.53;;;8.70;99.90;;;;;;5035046;28;20033;-82
2022/11/24 02:42:44;;;;;;;19.40;2.50;;;8.70;99.90;;;;;;5051704;28;20435;-81
2022/11/24 02:45:11;;;;;;;19.33;2.43;;;8.60;99.90;;;;;;5051646;28;20025;-82
2022/11/24 02:47:37;;;;;;;22.70;2.93;;;8.60;99.90;;;;;;5052266;28;20058;-82
2022/11/24 02:50:03;;;;;;;17.27;2.30;;;8.60;99.90;;;;;;5055679;28;20029;-81
2022/11/24 02:52:29;;;;;;;17.77;2.70;;;8.60;99.90;;;;;;5038866;28;20029;-82
2022/11/24 02:54:54;;;;;;;14.73;2.13;;;8.60;99.90;;;;;;5038996;28;20418;-82
2022/11/24 02:57:22;;;;;;;15.67;2.53;;;8.50;99.90;;;;;;5055609;28;20055;-81
2022/11/24 02:59:47;;;;;;;12.67;2.87;;;8.50;99.90;;;;;;5055500;28;20176;-81
2022/11/24 03:02:13;;;;;;;19.87;2.57;;;8.50;99.90;;;;;;5055622;28;20075;-82
2022/11/24 03:04:39;;;;;;;20.97;2.60;;;8.50;99.90;;;;;;5055442;28;20427;-81
2022/11/24 03:07:04;;;;;;;17.37;2.30;;;8.40;99.90;;;;;;5055519;28;20037;-81
2022/11/24 03:09:30;;;;;;;14.20;2.67;;;8.40;99.90;;;;;;5038762;28;20468;-81
2022/11/24 03:11:56;;;;;;;16.80;3.40;;;8.40;99.90;;;;;;5055502;28;20029;-82
2022/11/24 03:14:21;;;;;;;15.43;2.90;;;8.40;99.90;;;;;;5038802;28;20028;-81
2022/11/24 03:16:47;;;;;;;15.50;2.77;;;8.30;99.90;;;;;;5038605;28;20032;-81
2022/11/24 03:19:13;;;;;;;19.83;3.10;;;8.30;99.90;;;;;;5038543;28;20047;-81
2022/11/24 03:21:38;;;;;;;21.43;3.00;;;8.40;99.90;;;;;;5038772;28;20550;-81
2022/11/24 03:24:04;;;;;;;19.30;3.90;;;8.30;99.90;;;;;;5056374;28;20431;-81
2022/11/24 03:26:32;;;;;;;16.90;2.33;;;8.40;99.90;;;;;;5056017;28;20416;-81
2022/11/24 03:28:58;;;;;;;21.13;3.07;;;8.40;99.90;;;;;;5054885;28;20028;-81
2022/11/24 03:31:23;;;;;;;22.57;3.43;;;8.40;99.90;;;;;;5054989;28;20555;-81
2022/11/24 03:33:49;;;;;;;21.63;3.00;;;8.40;99.90;;;;;;5054951;28;20049;-81
2022/11/24 03:36:15;;;;;;;15.03;3.03;;;8.30;99.90;;;;;;5054785;28;20036;-80
2022/11/24 03:38:41;;;;;;;16.33;2.83;;;8.40;99.90;;;;;;5054920;28;20029;-81
2022/11/24 03:41:07;;;;;;;17.53;2.60;;;8.50;99.90;;;;;;5038031;28;20116;-81
2022/11/24 03:43:33;;;;;;;17.47;2.67;;;8.50;99.90;;;;;;5038516;28;20032;-81
2022/11/24 03:45:58;;;;;;;18.30;3.37;;;8.50;99.90;;;;;;5054481;28;20033;-81
2022/11/24 03:48:24;;;;;;;13.60;2.90;;;8.60;99.90;;;;;;5037943;28;20485;-80
2022/11/24 03:50:58;;;;;;;13.53;2.10;;;8.60;99.90;;;;;;5054530;28;20055;-81
2022/11/24 03:53:26;;;;;;;16.83;2.92;;;8.70;99.90;;;;;;5037903;28;20021;-81
2022/11/24 03:55:52;;;;;;;24.87;3.27;;;8.60;99.90;;;;;;5055786;28;20020;-81
2022/11/24 03:58:18;;;;;;;19.70;2.87;;;8.50;99.90;;;;;;5037531;28;20112;-81
2022/11/24 04:00:44;;;;;;;22.20;3.20;;;8.60;99.90;;;;;;5055719;28;20013;-81
2022/11/24 04:03:10;;;;;;;15.40;3.20;;;8.50;99.90;;;;;;5054321;28;20552;-81
2022/11/24 04:05:36;;;;;;;21.50;2.83;;;8.50;99.90;;;;;;5054384;28;20111;-81
2022/11/24 04:08:04;;;;;;;16.83;2.77;;;8.50;99.90;;;;;;5054292;28;20036;-81
2022/11/24 04:10:31;;;;;;;23.50;3.73;;;8.50;99.90;;;;;;5037761;28;20029;-81
2022/11/24 04:12:57;;;;;;;19.03;3.83;;;8.50;99.90;;;;;;5037915;28;20106;-81
2022/11/24 04:15:22;;;;;;;27.43;4.27;;;8.40;99.90;;;;;;5054168;28;20087;-82
2022/11/24 04:17:49;;;;;;;20.53;2.93;;;8.50;99.90;;;;;;5037559;28;20444;-82
2022/11/24 04:20:16;;;;;;;20.10;3.40;;;8.50;99.90;;;;;;5054139;28;20057;-82
2022/11/24 04:22:42;;;;;;;16.57;2.03;;;8.50;99.90;;;;;;5037537;28;20396;-82
2022/11/24 04:25:08;;;;;;;18.40;2.33;;;8.40;99.90;;;;;;5055387;28;20037;-82
2022/11/24 04:27:35;;;;;;;15.10;3.07;;;8.50;99.90;;;;;;5037226;28;20091;-81
2022/11/24 04:30:02;;;;;;;16.77;2.23;;;8.50;99.90;;;;;;5053996;28;20552;-82
2022/11/24 04:32:28;;;;;;;14.07;2.83;;;8.50;99.90;;;;;;5054349;28;20055;-82
2022/11/24 04:34:53;;;;;;;17.83;2.93;;;8.40;99.90;;;;;;5054346;28;20021;-81
2022/11/24 04:37:19;;;;;;;21.10;3.20;;;8.40;99.90;;;;;;5037408;28;20029;-81
2022/11/24 04:39:45;;;;;;;26.33;3.33;;;8.40;99.90;;;;;;5037583;28;20056;-82
2022/11/24 04:42:11;;;;;;;21.50;3.93;;;8.40;99.90;;;;;;5037247;28;20048;-81
2022/11/24 04:44:37;;;;;;;22.97;3.70;;;8.40;99.90;;;;;;5053626;28;20024;-82
2022/11/24 04:47:03;;;;;;;19.03;3.00;;;8.40;99.90;;;;;;5036870;28;20040;-82
2022/11/24 04:49:29;;;;;;;19.53;3.17;;;8.40;99.90;;;;;;5037108;28;20025;-82
2022/11/24 04:51:55;;;;;;;17.37;3.47;;;8.40;99.90;;;;;;5056835;28;20469;-82
2022/11/24 04:54:20;;;;;;;19.00;3.00;;;8.50;99.90;;;;;;5072145;28;20021;-82
2022/11/24 04:56:50;;;;;;;19.27;3.00;;;8.50;99.90;;;;;;5071783;28;20028;-82
2022/11/24 04:59:17;;;;;;;14.83;2.63;;;8.50;99.90;;;;;;5071754;28;20029;-82
2022/11/24 05:01:44;;;;;;;15.67;2.43;;;8.50;99.90;;;;;;5056427;28;20032;-82
2022/11/24 05:04:12;;;;;;;14.80;2.67;;;8.50;99.90;;;;;;5056712;28;20033;-82
2022/11/24 05:06:37;;;;;;;19.50;3.00;;;8.50;99.90;;;;;;5072068;28;20028;-82
2022/11/24 05:09:04;;;;;;;21.53;3.07;;;8.50;99.90;;;;;;5056333;28;20175;-81
2022/11/24 05:11:29;;;;;;;19.03;3.10;;;8.70;99.90;;;;;;5072245;28;20035;-81
2022/11/24 05:13:55;;;;;;;17.07;2.23;;;8.70;99.90;;;;;;5056091;28;20392;-81
2022/11/24 05:16:21;;;;;;;21.20;2.83;;;8.60;99.90;;;;;;5056103;28;20400;-82
2022/11/24 05:18:46;;;;;;;12.37;1.73;;;8.70;99.90;;;;;;5056337;28;20028;-82
2022/11/24 05:21:12;;;;;;;12.20;2.10;;;8.70;99.90;;;;;;5056443;28;20078;-81
2022/11/24 05:23:37;;;;;;;16.80;1.87;;;8.80;99.90;;;;;;5052622;28;20434;-82
2022/11/24 05:26:04;;;;;;;6.53;1.20;;;8.80;99.90;;;;;;5068387;28;20378;-82
2022/11/24 05:28:30;;;;;;;10.60;1.50;;;8.80;99.90;;;;;;5068152;28;20009;-82
2022/11/24 05:30:59;;;;;;;13.93;1.53;;;8.80;99.90;;;;;;5052188;28;20036;-82
2022/11/24 05:33:27;;;;;;;8.27;1.47;;;8.80;99.90;;;;;;5072502;28;20029;-81
2022/11/24 05:35:53;;;;;;;12.93;2.07;;;8.80;99.90;;;;;;5040495;28;20059;-81
2022/11/24 05:38:21;;;;;;;11.30;1.37;;;8.80;99.90;;;;;;5050836;28;20070;-81
2022/11/24 05:40:47;;;;;;;12.13;2.07;;;8.80;99.90;;;;;;5035158;28;20025;-81
2022/11/24 05:43:15;;;;;;;10.63;1.90;;;8.90;99.90;;;;;;5052466;28;20025;-81
2022/11/24 05:45:41;;;;;;;10.53;1.30;;;8.90;99.90;;;;;;5052332;28;20028;-81
2022/11/24 05:48:10;;;;;;;8.60;1.73;;;8.90;99.90;;;;;;5035962;28;20040;-81
2022/11/24 05:50:36;;;;;;;13.77;1.37;;;8.90;99.90;;;;;;5052389;28;20021;-80
2022/11/24 05:53:11;;;;;;;11.67;2.00;;;8.80;99.90;;;;;;5035615;28;20381;-81
2022/11/24 05:55:37;;;;;;;9.67;1.30;;;8.80;99.90;;;;;;5052163;28;20044;-81
2022/11/24 05:58:05;;;;;;;9.43;1.53;;;8.80;99.90;;;;;;5053517;28;20385;-81
2022/11/24 06:00:33;;;;;;;7.00;0.90;;;8.80;99.90;;;;;;5052078;28;20032;-80
2022/11/24 06:02:59;;;;;;;14.90;1.60;;;8.80;99.90;;;;;;5035366;28;20037;-80
2022/11/24 06:05:26;;;;;;;9.73;1.13;;;8.80;99.90;;;;;;5052029;28;20108;-80
2022/11/24 06:07:52;;;;;;;8.37;1.30;;;8.80;99.90;;;;;;5051930;28;20032;-81
2022/11/24 06:10:19;;;;;;;8.20;1.40;;;8.70;99.90;;;;;;5052332;28;20026;-80
2022/11/24 06:12:45;;;;;;;6.90;0.83;;;8.70;99.90;;;;;;5052176;28;20032;-80
2022/11/24 06:15:11;;;;;;;10.33;2.07;;;8.70;99.90;;;;;;5051878;28;20116;-81
2022/11/24 06:17:37;;;;;;;4.67;1.10;;;8.70;99.90;;;;;;5051821;28;20027;-81
2022/11/24 06:20:05;;;;;;;6.67;1.10;;;8.70;99.90;;;;;;5051734;28;20043;-81
2022/11/24 06:22:31;;;;;;;9.67;1.77;;;8.70;99.90;;;;;;5035092;28;20025;-81
2022/11/24 06:24:57;;;;;;;10.47;1.33;;;8.70;99.90;;;;;;5051801;28;20021;-82
2022/11/24 06:27:22;;;;;;;6.70;1.13;;;8.70;99.90;;;;;;5051506;28;20044;-81
2022/11/24 06:29:48;;;;;;;6.20;1.33;;;8.70;99.90;;;;;;5035111;28;20025;-81
2022/11/24 06:32:14;;;;;;;6.87;1.23;;;8.70;99.90;;;;;;5038924;28;20082;-81
2022/11/24 06:34:40;;;;;;;5.43;0.87;;;8.70;99.90;;;;;;5054471;28;20024;-81
2022/11/24 06:37:05;;;;;;;4.03;1.20;;;8.70;99.90;;;;;;5054535;28;20028;-81
2022/11/24 06:39:31;;;;;;;8.77;0.93;;;8.70;99.90;;;;;;5038059;28;20427;-80
2022/11/24 06:41:57;;;;;;;6.27;1.20;;;8.70;99.90;;;;;;5071269;28;20028;-83
2022/11/24 06:44:22;;;;;;;7.27;1.20;;;8.70;99.90;;;;;;5071357;28;20468;-82
2022/11/24 06:46:48;;;;;;;4.80;1.00;;;8.70;99.90;;;;;;5071256;28;20063;-83
2022/11/24 06:49:14;;;;;;;10.67;1.10;;;8.70;99.90;;;;;;5046492;28;20032;-83
2022/11/24 06:51:40;;;;;;;3.90;0.70;;;8.70;99.90;;;;;;5071018;28;20021;-83
2022/11/24 06:54:07;;;;;;;5.50;1.00;;;8.70;99.90;;;;;;5049193;28;20066;-82
2022/11/24 06:56:33;;;;;;;3.30;1.03;;;8.70;99.90;;;;;;5071117;28;20078;-81
2022/11/24 06:58:58;;;;;;;7.13;1.13;;;8.70;99.90;;;;;;5054761;28;20028;-80
2022/11/24 07:01:26;;;;;;;6.07;1.00;;;8.60;99.90;;;;;;5048162;28;20108;-81
2022/11/24 07:03:53;;;;;;;7.27;1.37;;;8.50;99.90;;;;;;5068534;28;20028;-82
2022/11/24 07:06:20;;;;;;;7.33;1.30;;;8.60;99.90;;;;;;5070934;28;20039;-83
2022/11/24 07:08:46;;;;;;;8.13;1.60;;;8.70;99.90;;;;;;5070827;28;20017;-82
2022/11/24 07:11:15;;;;;;;6.13;1.50;;;8.70;99.90;;;;;;5070996;28;20016;-83
2022/11/24 07:13:42;;;;;;;6.97;1.57;;;8.70;99.90;;;;;;5072130;28;20073;-84
2022/11/24 07:16:15;;;;;;;5.63;1.73;;;8.60;99.90;;;;;;5071354;28;20024;-85
2022/11/24 07:18:42;;;;;;;4.97;1.60;;;8.70;99.90;;;;;;5071323;28;20477;-85
2022/11/24 07:21:08;;;;;;;6.70;1.73;;;8.70;99.90;;;;;;5054691;28;20029;-84
2022/11/24 07:23:33;;;;;;;8.40;2.50;;;8.70;99.90;;;;;;5054331;28;20082;-84
2022/11/24 07:26:02;;;;;;;9.03;2.40;;;8.70;99.90;;;;;;5053822;28;20519;-84
2022/11/24 07:28:29;;;;;;;6.47;2.13;;;8.70;99.90;;;;;;5054449;28;20028;-83
2022/11/24 07:30:54;;;;;;;9.37;2.90;;;8.70;99.90;;;;;;5054539;28;20033;-84
2022/11/24 07:33:23;;;;;;;8.23;3.30;;;8.70;99.90;;;;;;5071350;28;20025;-84
2022/11/24 07:35:52;;;;;;;6.63;3.10;;;8.70;99.90;;;;;;5057940;28;20492;-83
2022/11/24 07:38:18;;;;;;;10.73;4.10;;;8.70;99.90;;;;;;5074923;28;20025;-83
2022/11/24 07:40:44;;;;;;;13.30;4.40;;;8.70;99.90;;;;;;5075967;28;20017;-83
2022/11/24 07:43:10;;;;;;;12.63;5.00;;;8.70;99.90;;;;;;5074614;28;20021;-82
2022/11/24 07:45:36;;;;;;;11.47;5.57;;;8.70;99.90;;;;;;5074527;28;20417;-82
2022/11/24 07:48:01;;;;;;;13.50;5.47;;;8.80;99.90;;;;;;5057805;28;20033;-83
2022/11/24 07:50:27;;;;;;;13.33;4.93;;;8.70;99.90;;;;;;5057463;28;20027;-83
2022/11/24 07:52:53;;;;;;;11.00;4.73;;;8.80;99.90;;;;;;5049545;28;20024;-83
2022/11/24 07:55:18;;;;;;;9.53;5.30;;;8.80;99.90;;;;;;5057947;28;20506;-83
2022/11/24 07:57:44;;;;;;;11.97;5.20;;;8.80;99.90;;;;;;5074303;28;20033;-83
2022/11/24 08:00:11;;;;;;;14.83;6.07;;;8.80;99.90;;;;;;5056415;28;20025;-83
2022/11/24 08:02:37;;;;;;;12.80;6.83;;;8.80;99.90;;;;;;5074350;28;20028;-83
2022/11/24 08:05:02;;;;;;;10.83;4.97;;;8.80;99.90;;;;;;5054117;28;20460;-83
2022/11/24 08:07:28;;;;;;;14.13;6.90;;;8.80;99.90;;;;;;5051164;28;20021;-83
2022/11/24 08:09:54;;;;;;;12.53;6.33;;;8.80;99.90;;;;;;5046434;28;20043;-84
2022/11/24 08:12:22;;;;;;;12.97;6.30;;;8.90;99.90;;;;;;5053130;28;20029;-84
2022/11/24 08:14:49;;;;;;;11.43;5.37;;;8.90;99.90;;;;;;5037699;28;20139;-83
2022/11/24 08:17:18;;;;;;;12.47;5.33;;;8.90;99.90;;;;;;5043261;28;20055;-83
2022/11/24 08:19:44;;;;;;;13.83;5.47;;;8.90;99.90;;;;;;5050817;28;20029;-84
2022/11/24 08:22:09;;;;;;;15.70;5.43;;;8.90;99.90;;;;;;5067973;28;20477;-84
2022/11/24 08:24:36;;;;;;;12.30;5.00;;;9.00;99.90;;;;;;5038129;28;20033;-83
2022/11/24 08:27:01;;;;;;;13.57;4.50;;;9.00;99.90;;;;;;5072685;28;20093;-84
2022/11/24 08:29:28;;;;;;;11.57;4.17;;;9.10;99.90;;;;;;5073955;28;20031;-84
2022/11/24 08:31:58;;;;;;;8.97;3.40;;;9.10;99.90;;;;;;5073498;28;20017;-83
2022/11/24 08:34:24;;;;;;;11.20;3.17;;;9.10;99.90;;;;;;5073561;28;20020;-83
2022/11/24 08:36:51;;;;;;;12.93;3.90;;;9.10;99.90;;;;;;5056511;28;20036;-83
2022/11/24 08:39:17;;;;;;;15.27;3.40;;;9.10;99.90;;;;;;5056842;28;20098;-84
2022/11/24 08:41:43;;;;;;;11.70;3.60;;;9.10;99.90;;;;;;5057074;28;20032;-84
2022/11/24 08:44:09;;;;;;;15.13;3.50;;;9.10;99.90;;;;;;5073429;28;20031;-84
2022/11/24 08:46:36;;;;;;;14.27;3.40;;;9.20;99.90;;;;;;5055089;28;20045;-84
2022/11/24 08:49:01;;;;;;;10.33;4.17;;;9.20;99.90;;;;;;5035940;28;20120;-84
2022/11/24 08:51:27;;;;;;;11.93;3.70;;;9.20;99.90;;;;;;5046458;28;20048;-84
2022/11/24 08:53:55;;;;;;;10.23;3.50;;;9.20;99.90;;;;;;5072942;28;20035;-83
2022/11/24 08:56:21;;;;;;;10.87;3.60;;;9.20;99.90;;;;;;5074043;28;20039;-83
2022/11/24 08:58:46;;;;;;;14.03;3.23;;;9.20;99.90;;;;;;5073094;28;20436;-83
2022/11/24 09:01:16;;;;;;;10.80;3.50;;;9.30;99.90;;;;;;5056706;28;20029;-84
2022/11/24 09:03:43;;;;;;;9.83;3.00;;;9.30;99.90;;;;;;5072694;28;20032;-83
2022/11/24 09:06:09;;;;;;;11.47;2.97;;;9.40;99.90;;;;;;5072765;28;20029;-83
2022/11/24 09:08:36;;;;;;;10.87;2.67;;;9.50;99.90;;;;;;5055845;28;20111;-83
2022/11/24 09:11:04;;;;;;;14.53;3.27;;;9.50;99.90;;;;;;5072979;28;20024;-83
2022/11/24 09:13:30;;;;;;;7.77;2.63;;;9.50;99.90;;;;;;5056609;28;20048;-84
2022/11/24 09:16:00;;;;;;;10.13;2.93;;;9.50;99.90;;;;;;5074352;28;20099;-83
2022/11/24 09:18:26;;;;;;;11.37;3.60;;;9.50;99.90;;;;;;5057184;28;20020;-84
2022/11/24 09:20:52;;;;;;;11.10;3.20;;;9.50;99.90;;;;;;5073027;28;20095;-84
2022/11/24 09:23:17;;;;;;;10.57;2.77;;;9.50;99.90;;;;;;5056893;28;20021;-83
2022/11/24 09:25:43;;;;;;;9.93;2.50;;;9.50;99.90;;;;;;5073820;28;20472;-84
2022/11/24 09:28:08;;;;;;;11.50;3.43;;;9.50;99.90;;;;;;5052088;28;20029;-84
2022/11/24 09:30:34;;;;;;;9.50;1.77;;;9.50;99.90;;;;;;5075078;28;20100;-85
2022/11/24 09:33:00;;;;;;;12.50;2.47;;;9.60;99.90;;;;;;5056502;28;20134;-84
2022/11/24 09:35:25;;;;;;;10.13;2.77;;;9.70;99.90;;;;;;5055673;28;20036;-83
2022/11/24 09:37:51;;;;;;;9.70;1.73;;;9.80;99.90;;;;;;5071646;28;20061;-83
2022/11/24 09:40:17;;;;;;;5.43;1.45;;;10.10;99.90;;;;;;5049325;28;20507;-82
2022/11/24 09:43:11;;;;;;;11.57;1.65;;;10.70;99.90;;;;;;5073033;28;20396;-84
2022/11/24 09:45:57;;;;;;;7.38;1.90;;;10.90;99.90;;;;;;5070260;28;20055;-84
2022/11/24 09:48:35;;;;;;;6.63;1.88;;;11.00;99.90;;;;;;5065038;28;20033;-84
2022/11/24 09:51:03;;;;;;;6.97;1.95;;;10.90;99.90;;;;;;5073507;28;20471;-84
2022/11/24 09:53:52;;;;;;;5.18;1.20;;;10.90;99.90;;;;;;5071607;28;20031;-84
2022/11/24 09:56:27;;;;;;;6.05;1.33;;;11.40;99.90;;;;;;5071831;28;20067;-83
2022/11/24 09:59:02;;;;;;;7.60;1.05;;;12.20;99.90;;;;;;5072242;28;20016;-84
2022/11/24 10:01:32;;;;;;;12.38;1.40;;;12.80;99.90;;;;;;5073100;28;20039;-84
2022/11/24 10:03:58;;;;;;;7.25;0.93;;;13.50;99.90;;;;;;5072910;28;20024;-84
2022/11/24 10:06:25;;;;;;;7.60;1.20;;;14.20;99.90;;;;;;5055045;28;20021;-83
2022/11/24 10:09:19;;;;;;;4.53;1.00;;;14.60;99.90;;;;;;5105833;28;20480;-83
2022/11/24 10:12:06;;;;;;;7.45;1.30;;;15.10;99.90;;;;;;5072421;28;20365;-82
2022/11/24 10:14:34;;;;;;;6.60;1.45;;;15.60;99.60;;;;;;5072091;28;20108;-82
2022/11/24 10:17:28;;;;;;;7.18;1.20;;;16.00;96.90;;;;;;5074640;28;20330;-83
2022/11/24 10:20:17;;;;;;;8.60;1.17;;;16.30;95.10;;;;;;5071568;28;20025;-83
2022/11/24 10:22:46;;;;;;;6.45;1.00;;;16.40;91.90;;;;;;5072122;28;20032;-83
2022/11/24 10:25:21;;;;;;;7.30;1.38;;;16.50;90.70;;;;;;5073233;28;20032;-83
2022/11/24 10:27:54;;;;;;;5.85;1.15;;;16.30;87.20;;;;;;5072788;28;20053;-83
2022/11/24 10:30:22;;;;;;;7.80;1.20;;;16.10;85.40;;;;;;5071801;28;20025;-83
2022/11/24 10:33:02;;;;;;;6.28;1.33;;;16.00;85.10;;;;;;5072077;28;20016;-84
2022/11/24 10:35:36;;;;;;;8.38;1.48;;;15.90;84.30;;;;;;5071909;28;20055;-83
2022/11/24 10:38:25;;;;;;;9.10;1.45;;;15.90;82.40;;;;;;5071649;28;20025;-83
2022/11/24 10:41:07;;;;;;;6.57;1.50;;;16.00;82.50;;;;;;5071240;28;20044;-82
2022/11/24 10:43:33;;;;;;;4.57;1.30;;;16.40;82.80;;;;;;5071745;28;20028;-84
2022/11/24 10:46:14;;;;;;;7.63;1.27;;;16.70;82.30;;;;;;5055070;28;20039;-82
2022/11/24 10:48:49;;;;;;;8.00;1.52;;;17.10;80.90;;;;;;5071529;28;20136;-84
2022/11/24 10:51:52;;;;;;;7.45;1.00;;;17.30;78.30;;;;;;5054943;28;20111;-83
2022/11/24 10:54:21;;;;;;;6.97;0.95;;;17.70;77.60;;;;;;5071673;28;20016;-84
2022/11/24 10:56:50;;;;;;;8.48;1.73;;;17.90;77.70;;;;;;5072798;28;20047;-84
2022/11/24 10:59:36;;;;;;;9.05;1.63;;;18.00;74.80;;;;;;5071556;28;20028;-84
2022/11/24 11:02:22;;;;;;;6.40;1.38;;;18.00;74.20;;;;;;5054757;28;20021;-83
2022/11/24 11:04:47;;;;;;;8.50;1.55;;;18.10;74.00;;;;;;5070803;28;20067;-83
2022/11/24 11:07:19;;;;;;;11.00;1.50;;;18.10;73.30;;;;;;5053611;28;20064;-84
2022/11/24 11:09:46;;;;;;;6.97;1.20;;;18.20;71.90;;;;;;5073849;28;20499;-82
2022/11/24 11:12:21;;;;;;;8.10;1.33;;;18.20;71.20;;;;;;5075357;28;20404;-82
2022/11/24 11:14:47;;;;;;;11.02;2.08;;;18.20;71.00;;;;;;5076492;28;20441;-83
2022/11/24 11:17:33;;;;;;;10.32;1.95;;;18.20;69.40;;;;;;5058621;28;20341;-84
2022/11/24 11:20:17;;;;;;;11.15;1.92;;;18.00;69.40;;;;;;5076398;28;20380;-83
2022/11/24 11:22:46;;;;;;;6.63;1.60;;;17.80;68.20;;;;;;5076416;28;20032;-83
2022/11/24 11:25:12;;;;;;;10.90;2.17;;;17.70;68.30;;;;;;5075177;28;20016;-83
2022/11/24 11:27:39;;;;;;;10.40;1.73;;;17.60;67.20;;;;;;5074830;28;20040;-84
2022/11/24 11:30:26;;;;;;;8.65;1.75;;;17.30;67.60;;;;;;5058334;28;20503;-83
2022/11/24 11:33:00;;;;;;;12.93;2.92;;;17.20;67.90;;;;;;5074931;28;20032;-84
2022/11/24 11:35:28;;;;;;;11.20;2.70;;;17.20;68.70;;;;;;5076664;28;20025;-83
2022/11/24 11:38:00;;;;;;;12.27;1.98;;;17.20;68.20;;;;;;5076245;28;20036;-83
2022/11/24 11:40:29;;;;;;;12.43;1.83;;;17.30;68.50;;;;;;5076001;28;20048;-83
2022/11/24 11:43:11;;;;;;;9.68;2.08;;;17.50;69.00;;;;;;5074461;28;20028;-85
2022/11/24 11:45:43;;;;;;;8.75;1.83;;;17.80;68.60;;;;;;5073889;28;20036;-84
2022/11/24 11:48:32;;;;;;;9.85;1.80;;;18.10;68.60;;;;;;5074745;28;20047;-84
2022/11/24 11:51:05;;;;;;;10.68;2.30;;;18.40;67.80;;;;;;5074840;28;20013;-83
2022/11/24 11:53:44;;;;;;;8.43;2.30;;;18.60;66.60;;;;;;5077066;28;20503;-84
2022/11/24 11:56:21;;;;;;;11.50;2.55;;;18.80;66.80;;;;;;5075107;28;20140;-84
2022/11/24 11:58:59;;;;;;;9.25;2.40;;;19.20;66.40;;;;;;5075438;28;20486;-84
2022/11/24 12:01:50;;;;;;;10.45;2.00;;;19.70;65.30;;;;;;5076611;28;20055;-84
2022/11/24 12:04:21;;;;;;;8.15;1.85;;;20.00;64.50;;;;;;5072069;28;20086;-85
2022/11/24 12:07:05;;;;;;;7.97;1.55;;;20.40;64.20;;;;;;5074179;28;20029;-84
2022/11/24 12:09:56;;;;;;;11.35;2.25;;;20.70;63.20;;;;;;5074122;28;20029;-85
2022/11/24 12:12:40;;;;;;;8.55;1.70;;;21.10;62.60;;;;;;5072647;28;20054;-85
2022/11/24 12:15:35;;;;;;;;;;;21.60;61.90;;;;;;5075960;28;20021;-84
2022/11/24 12:18:20;;;;;;;10.30;2.25;;;21.90;62.00;;;;;;5067195;28;20356;-83
2022/11/24 12:21:15;;;;;;;11.07;2.13;;;22.30;59.00;;;;;;5074167;28;20021;-85
2022/11/24 12:24:22;;;;;;;8.43;1.90;;;22.40;57.40;;;;;;5072746;28;20066;-84
2022/11/24 12:27:29;;;;;;;8.90;1.90;;;22.60;57.50;;;;;;5058929;28;20044;-85
2022/11/24 12:30:30;;;;;;;10.15;1.45;;;22.90;56.90;;;;;;5053912;28;20021;-85
2022/11/24 12:33:04;;;;;;;9.23;1.75;;;23.20;56.60;;;;;;5071388;28;20124;-85
2022/11/24 12:35:38;;;;;;;9.32;2.10;;;23.30;54.80;;;;;;5073945;28;20025;-85
2022/11/24 12:38:28;;;;;;;8.38;2.08;;;23.20;53.80;;;;;;5074977;28;20107;-84
2022/11/24 12:40:53;;;;;;;13.20;2.30;;;23.20;53.30;;;;;;5074087;28;20043;-84
2022/11/24 12:43:31;;;;;;;11.93;2.05;;;23.20;52.50;;;;;;5074083;28;20488;-83
2022/11/24 12:46:13;;;;;;;6.70;1.75;;;23.10;52.40;;;;;;5075265;28;20028;-84
2022/11/24 12:49:07;;;;;;;12.75;2.05;;;22.90;52.30;;;;;;5073705;28;20046;-85
2022/11/24 12:51:41;;;;;;;6.13;1.52;;;22.80;53.10;;;;;;5071201;28;20028;-84
2022/11/24 12:54:13;;;;;;;7.82;1.77;;;23.00;52.90;;;;;;5070861;28;20032;-85
2022/11/24 12:56:54;;;;;;;8.57;2.40;;;23.10;52.40;;;;;;5071765;28;20016;-86
2022/11/24 13:00:02;;;;;;;10.00;2.30;;;23.20;52.30;;;;;;5072039;28;20236;-86
2022/11/24 13:03:05;;;;;;;9.35;1.90;;;23.30;52.00;;;;;;5065670;28;20058;-85